Time;durP1;ratioP1;P1;durP2;ratioP2;P2;SDS_P1;SDS_P2;PMS_P1;PMS_P2;Temp;Humidity;BMP_temperature;BMP_pressure;BME280_temperature;BME280_humidity;BME280_pressure;Samples;Min_cycle;Max_cycle;Signal;HPM_P1;HPM_P2
2024/01/01 00:00:45;;;;;;;15.13;11.63;;;;;;;;;;10311224;28;20064;-61
2024/01/01 00:05:49;;;;;;;13.90;11.55;;;;;;;;;;10307951;28;20076;-61
2024/01/01 00:10:47;;;;;;;13.30;11.90;;;;;;;;;;10309300;28;20079;-61
2024/01/01 00:15:45;;;;;;;13.73;10.80;;;;;;;;;;10300134;28;20068;-59
2024/01/01 00:20:44;;;;;;;13.38;11.93;;;;;;;;;;10298117;28;20060;-61
2024/01/01 00:25:43;;;;;;;20.35;17.95;;;;;;;;;;10303652;28;20230;-61
2024/01/01 00:30:41;;;;;;;37.53;27.38;;;;;;;;;;10294884;28;20083;-60
2024/01/01 00:35:40;;;;;;;42.75;33.55;;;;;;;;;;10305047;28;20501;-61
2024/01/01 00:40:38;;;;;;;52.35;36.80;;;;;;;;;;10301791;28;20474;-62
2024/01/01 00:45:38;;;;;;;69.10;46.03;;;;;;;;;;10302434;28;20079;-61
2024/01/01 00:50:46;;;;;;;40.15;29.42;;;;;;;;;;10308997;28;20076;-61
2024/01/01 00:55:46;;;;;;;14.35;12.90;;;;;;;;;;10299914;28;20075;-61
2024/01/01 01:00:46;;;;;;;13.90;12.15;;;;;;;;;;10313222;28;20061;-62
2024/01/01 01:05:45;;;;;;;12.75;11.40;;;;;;;;;;10293816;28;20072;-61
2024/01/01 01:10:43;;;;;;;16.77;12.77;;;;;;;;;;10289848;28;20167;-61
2024/01/01 01:15:41;;;;;;;13.43;11.95;;;;;;;;;;10322455;28;20505;-61
2024/01/01 01:20:41;;;;;;;14.52;11.52;;;;;;;;;;10301424;28;20099;-61
2024/01/01 01:25:39;;;;;;;13.23;11.82;;;;;;;;;;10297441;28;20505;-61
2024/01/01 01:30:37;;;;;;;20.88;14.98;;;;;;;;;;10310984;28;20104;-61
2024/01/01 01:35:36;;;;;;;19.40;13.30;;;;;;;;;;10295281;28;20072;-60
2024/01/01 01:40:35;;;;;;;17.20;14.18;;;;;;;;;;10304652;28;20758;-61
2024/01/01 01:45:34;;;;;;;20.58;16.33;;;;;;;;;;10311976;28;20071;-62
2024/01/01 01:50:32;;;;;;;17.02;14.45;;;;;;;;;;10291008;28;20072;-61
2024/01/01 01:55:30;;;;;;;14.95;13.27;;;;;;;;;;10292098;28;20085;-60
2024/01/01 02:00:30;;;;;;;15.05;12.52;;;;;;;;;;10291220;28;20068;-61
2024/01/01 02:05:28;;;;;;;16.60;13.73;;;;;;;;;;10305944;28;20067;-60
2024/01/01 02:10:27;;;;;;;19.27;15.57;;;;;;;;;;10297949;28;20076;-61
2024/01/01 02:15:25;;;;;;;22.40;18.25;;;;;;;;;;10307805;28;20519;-61
2024/01/01 02:20:25;;;;;;;24.35;21.17;;;;;;;;;;10294138;28;20454;-61
2024/01/01 02:25:25;;;;;;;22.90;19.15;;;;;;;;;;10297172;28;20514;-61
2024/01/01 02:30:23;;;;;;;24.45;18.40;;;;;;;;;;10300472;28;20489;-61
2024/01/01 02:35:21;;;;;;;18.45;16.55;;;;;;;;;;10288095;28;20091;-61
2024/01/01 02:40:20;;;;;;;13.23;11.93;;;;;;;;;;10303647;28;20060;-61
2024/01/01 02:45:22;;;;;;;14.93;13.00;;;;;;;;;;10296398;28;20068;-61
2024/01/01 02:50:21;;;;;;;14.63;12.98;;;;;;;;;;10301778;28;20083;-62
2024/01/01 02:55:19;;;;;;;13.48;11.98;;;;;;;;;;10303058;28;20083;-61
2024/01/01 03:00:17;;;;;;;13.45;12.10;;;;;;;;;;10288902;28;20075;-61
2024/01/01 03:05:18;;;;;;;13.45;11.60;;;;;;;;;;10283231;28;20091;-61
2024/01/01 03:10:17;;;;;;;16.50;13.50;;;;;;;;;;10310746;28;20068;-61
2024/01/01 03:15:15;;;;;;;15.52;11.52;;;;;;;;;;10306453;28;20525;-61
2024/01/01 03:20:13;;;;;;;13.77;11.90;;;;;;;;;;10309741;28;20571;-61
2024/01/01 03:25:13;;;;;;;12.05;10.85;;;;;;;;;;10288392;28;20498;-61
2024/01/01 03:30:12;;;;;;;13.90;11.63;;;;;;;;;;10303263;28;20072;-60
2024/01/01 03:35:11;;;;;;;12.77;11.32;;;;;;;;;;10311029;28;20080;-61
2024/01/01 03:40:09;;;;;;;13.60;11.82;;;;;;;;;;10297830;28;20084;-62
2024/01/01 03:45:10;;;;;;;13.40;11.98;;;;;;;;;;10306784;28;20102;-62
2024/01/01 03:50:08;;;;;;;15.20;11.90;;;;;;;;;;10321640;28;20075;-62
2024/01/01 03:55:07;;;;;;;13.63;11.20;;;;;;;;;;10297160;28;20534;-62
2024/01/01 04:00:06;;;;;;;14.85;11.95;;;;;;;;;;10288326;28;20072;-62
2024/01/01 04:05:08;;;;;;;14.13;12.18;;;;;;;;;;10283021;28;20071;-61
2024/01/01 04:10:08;;;;;;;13.93;12.05;;;;;;;;;;10317477;28;20075;-60
2024/01/01 04:15:06;;;;;;;13.77;12.13;;;;;;;;;;10286150;28;20095;-62
2024/01/01 04:20:10;;;;;;;16.40;12.52;;;;;;;;;;10278345;28;20075;-62
2024/01/01 04:25:10;;;;;;;16.40;11.82;;;;;;;;;;10276588;28;20069;-62
2024/01/01 04:30:10;;;;;;;29.75;25.48;;;;;;;;;;10280046;28;20569;-62
2024/01/01 04:35:08;;;;;;;19.98;15.35;;;;;;;;;;10281123;28;20096;-62
2024/01/01 04:40:07;;;;;;;14.45;12.13;;;;;;;;;;10282137;28;20087;-62
2024/01/01 04:45:07;;;;;;;14.23;12.48;;;;;;;;;;10285955;28;20080;-62
2024/01/01 04:50:06;;;;;;;15.80;13.30;;;;;;;;;;10284511;28;20083;-61
2024/01/01 04:55:05;;;;;;;16.65;12.48;;;;;;;;;;10289044;28;20585;-62
2024/01/01 05:00:03;;;;;;;15.05;12.57;;;;;;;;;;10288141;28;20083;-62
2024/01/01 05:05:05;;;;;;;15.25;12.50;;;;;;;;;;10287876;28;20080;-62
2024/01/01 05:10:04;;;;;;;16.15;13.00;;;;;;;;;;10288635;28;20079;-61
2024/01/01 05:15:02;;;;;;;18.02;12.60;;;;;;;;;;10289075;28;20084;-61
2024/01/01 05:20:00;;;;;;;20.52;15.38;;;;;;;;;;10284993;28;20071;-62
2024/01/01 05:25:00;;;;;;;31.10;26.60;;;;;;;;;;10289188;28;20515;-61
2024/01/01 05:29:58;;;;;;;29.92;24.23;;;;;;;;;;10287659;28;20072;-61
2024/01/01 05:34:57;;;;;;;19.27;17.17;;;;;;;;;;10287818;28;20103;-61
2024/01/01 05:39:55;;;;;;;19.35;17.27;;;;;;;;;;10288859;28;20072;-61
2024/01/01 05:44:54;;;;;;;19.20;15.23;;;;;;;;;;10288767;28;20099;-61
2024/01/01 05:49:53;;;;;;;16.85;15.05;;;;;;;;;;10288037;28;20773;-61
2024/01/01 05:54:51;;;;;;;16.45;13.75;;;;;;;;;;10280210;28;20552;-61
2024/01/01 05:59:49;;;;;;;17.92;14.30;;;;;;;;;;10282426;28;20068;-61
2024/01/01 06:04:49;;;;;;;13.88;12.27;;;;;;;;;;10285493;28;20487;-61
2024/01/01 06:09:47;;;;;;;32.92;27.70;;;;;;;;;;10282636;28;20111;-61
2024/01/01 06:14:46;;;;;;;71.35;46.42;;;;;;;;;;10280049;28;20076;-61
2024/01/01 06:19:44;;;;;;;74.45;53.53;;;;;;;;;;10279383;28;20084;-61
2024/01/01 06:24:44;;;;;;;53.95;41.55;;;;;;;;;;10284776;28;20099;-60
2024/01/01 06:29:42;;;;;;;51.13;43.65;;;;;;;;;;10285458;28;20072;-61
2024/01/01 06:34:40;;;;;;;46.17;36.63;;;;;;;;;;10286256;28;20095;-60
2024/01/01 06:39:39;;;;;;;85.20;44.08;;;;;;;;;;10285216;28;20076;-61
2024/01/01 06:44:38;;;;;;;102.22;48.15;;;;;;;;;;10285565;28;20079;-60
2024/01/01 06:49:36;;;;;;;113.88;45.25;;;;;;;;;;10283692;28;20529;-61
2024/01/01 06:54:35;;;;;;;70.60;44.22;;;;;;;;;;10282369;28;20072;-61
2024/01/01 06:59:33;;;;;;;54.33;44.20;;;;;;;;;;10280439;28;20569;-61
2024/01/01 07:04:32;;;;;;;91.63;77.80;;;;;;;;;;10283344;28;20532;-61
2024/01/01 07:09:31;;;;;;;57.92;47.92;;;;;;;;;;10282662;28;20071;-61
2024/01/01 07:14:29;;;;;;;20.55;17.33;;;;;;;;;;10286042;28;20076;-61
2024/01/01 07:19:27;;;;;;;61.70;48.33;;;;;;;;;;10281298;28;20482;-61
2024/01/01 07:24:27;;;;;;;72.20;57.10;;;;;;;;;;10281933;28;20057;-61
2024/01/01 07:29:25;;;;;;;34.00;30.38;;;;;;;;;;10279888;28;20064;-64
2024/01/01 07:34:24;;;;;;;23.63;19.35;;;;;;;;;;10283293;28;20091;-63
2024/01/01 07:39:23;;;;;;;20.65;18.05;;;;;;;;;;10277940;28;20730;-63
2024/01/01 07:44:23;;;;;;;20.92;17.70;;;;;;;;;;10279166;28;20072;-61
2024/01/01 07:49:21;;;;;;;19.08;17.08;;;;;;;;;;10275941;28;20083;-61
2024/01/01 07:54:19;;;;;;;19.55;15.90;;;;;;;;;;10277041;28;20084;-61
2024/01/01 07:59:17;;;;;;;62.72;51.22;;;;;;;;;;10274656;28;20076;-61
2024/01/01 08:04:17;;;;;;;19.35;17.00;;;;;;;;;;10279452;28;20461;-61
2024/01/01 08:09:15;;;;;;;24.35;19.50;;;;;;;;;;10274026;28;20178;-62
2024/01/01 08:14:14;;;;;;;25.35;21.63;;;;;;;;;;10281795;28;20529;-62
2024/01/01 08:19:12;;;;;;;39.55;30.85;;;;;;;;;;10288182;28;20084;-62
2024/01/01 08:24:12;;;;;;;29.95;25.60;;;;;;;;;;10291031;28;20461;-61
2024/01/01 08:29:10;;;;;;;34.63;30.90;;;;;;;;;;10286216;28;20069;-62
2024/01/01 08:34:09;;;;;;;31.73;28.02;;;;;;;;;;10291169;28;20088;-62
2024/01/01 08:39:09;;;;;;;38.28;30.75;;;;;;;;;;10288531;28;20071;-61
2024/01/01 08:44:09;;;;;;;39.38;29.30;;;;;;;;;;10287447;28;20072;-62
2024/01/01 08:49:08;;;;;;;33.55;29.63;;;;;;;;;;10286052;28;20717;-62
2024/01/01 08:54:07;;;;;;;60.78;44.22;;;;;;;;;;10289311;28;20075;-61
2024/01/01 08:59:05;;;;;;;42.65;34.78;;;;;;;;;;10285572;28;20075;-62
2024/01/01 09:04:05;;;;;;;41.72;34.35;;;;;;;;;;10291019;28;20083;-62
2024/01/01 09:09:03;;;;;;;36.83;32.58;;;;;;;;;;10292073;28;20065;-62
2024/01/01 09:14:01;;;;;;;43.83;37.28;;;;;;;;;;10288530;28;20087;-61
2024/01/01 09:19:00;;;;;;;54.15;42.35;;;;;;;;;;10287078;28;20498;-63
2024/01/01 09:24:01;;;;;;;60.60;48.10;;;;;;;;;;10287748;28;20498;-62
2024/01/01 09:29:00;;;;;;;63.45;49.75;;;;;;;;;;10288295;28;20096;-62
2024/01/01 09:34:00;;;;;;;50.63;42.13;;;;;;;;;;10282753;28;20088;-62
2024/01/01 09:39:00;;;;;;;76.45;58.40;;;;;;;;;;10283054;28;20071;-62
2024/01/01 09:43:59;;;;;;;77.07;59.65;;;;;;;;;;10284745;28;20073;-63
2024/01/01 09:48:57;;;;;;;50.63;41.50;;;;;;;;;;10288423;28;20072;-62
2024/01/01 09:53:55;;;;;;;48.22;39.75;;;;;;;;;;10284236;28;20072;-62
2024/01/01 09:58:57;;;;;;;47.95;38.80;;;;;;;;;;10290453;28;20111;-62
2024/01/01 10:04:03;;;;;;;46.80;36.33;;;;;;;;;;10286182;28;20080;-62
2024/01/01 10:09:06;;;;;;;43.60;37.67;;;;;;;;;;10281982;28;20506;-62
2024/01/01 10:14:05;;;;;;;51.78;40.22;;;;;;;;;;10285016;28;20501;-62
2024/01/01 10:19:03;;;;;;;38.25;33.08;;;;;;;;;;10285669;28;20536;-62
2024/01/01 10:24:12;;;;;;;43.67;37.03;;;;;;;;;;10287236;28;20487;-62
2024/01/01 10:29:34;;;;;;;46.15;36.83;;;;;;;;;;10291678;28;20478;-62
2024/01/01 10:34:32;;;;;;;48.88;40.20;;;;;;;;;;10291059;28;20088;-62
2024/01/01 10:39:31;;;;;;;47.80;36.50;;;;;;;;;;10288019;28;20060;-62
2024/01/01 10:44:31;;;;;;;42.13;34.20;;;;;;;;;;10319737;28;20060;-62
2024/01/01 10:49:30;;;;;;;38.22;33.88;;;;;;;;;;10288320;28;20076;-61
2024/01/01 10:54:46;;;;;;;42.25;35.55;;;;;;;;;;10281967;28;20124;-61
2024/01/01 10:59:50;;;;;;;37.40;32.97;;;;;;;;;;10278163;28;20091;-61
2024/01/01 11:04:53;;;;;;;45.88;36.33;;;;;;;;;;10285041;28;20067;-61
2024/01/01 11:09:53;;;;;;;59.72;45.85;;;;;;;;;;10280780;28;20518;-62
2024/01/01 11:14:53;;;;;;;48.08;39.08;;;;;;;;;;10281972;28;20068;-62
2024/01/01 11:19:51;;;;;;;65.28;52.25;;;;;;;;;;10285556;28;20076;-62
2024/01/01 11:24:50;;;;;;;46.45;38.13;;;;;;;;;;10282154;28;20190;-62
2024/01/01 11:29:49;;;;;;;59.30;46.70;;;;;;;;;;10283963;28;20080;-60
2024/01/01 11:35:02;;;;;;;57.63;46.03;;;;;;;;;;10283654;28;20088;-61
2024/01/01 11:40:03;;;;;;;58.53;45.42;;;;;;;;;;10277924;28;20446;-61
2024/01/01 11:45:11;;;;;;;51.45;40.95;;;;;;;;;;10280316;28;20069;-61
2024/01/01 11:50:10;;;;;;;50.15;38.22;;;;;;;;;;10285116;28;20072;-61
2024/01/01 11:55:10;;;;;;;42.70;34.67;;;;;;;;;;10292109;28;20077;-62
2024/01/01 12:00:09;;;;;;;49.83;39.72;;;;;;;;;;10291814;28;20068;-63
2024/01/01 12:05:08;;;;;;;36.20;31.95;;;;;;;;;;10285222;28;20505;-61
2024/01/01 12:10:08;;;;;;;50.45;44.97;;;;;;;;;;10287008;28;20080;-60
2024/01/01 12:15:12;;;;;;;72.75;62.47;;;;;;;;;;10289340;28;20076;-61
2024/01/01 12:20:11;;;;;;;49.40;43.95;;;;;;;;;;10291324;28;20076;-63
2024/01/01 12:25:14;;;;;;;52.50;43.22;;;;;;;;;;10287380;28;20095;-62
2024/01/01 12:30:27;;;;;;;41.70;33.50;;;;;;;;;;10286978;28;20068;-62
2024/01/01 12:35:25;;;;;;;42.90;34.53;;;;;;;;;;10289621;28;20099;-61
2024/01/01 12:40:25;;;;;;;40.08;34.08;;;;;;;;;;10291836;28;20080;-63
2024/01/01 12:45:25;;;;;;;41.13;33.30;;;;;;;;;;10291348;28;20072;-63
2024/01/01 12:50:24;;;;;;;38.40;34.20;;;;;;;;;;10290405;28;20079;-61
2024/01/01 12:55:23;;;;;;;40.80;35.38;;;;;;;;;;10289066;28;20085;-61
2024/01/01 13:00:21;;;;;;;49.72;43.20;;;;;;;;;;10288444;28;20069;-61
2024/01/01 13:05:21;;;;;;;47.30;42.13;;;;;;;;;;10287545;28;20060;-61
2024/01/01 13:10:21;;;;;;;45.38;38.53;;;;;;;;;;10289633;28;20068;-62
2024/01/01 13:15:21;;;;;;;40.25;35.97;;;;;;;;;;10288336;28;20079;-64
2024/01/01 13:20:22;;;;;;;44.05;31.52;;;;;;;;;;10289136;28;20071;-63
2024/01/01 13:25:22;;;;;;;50.25;39.30;;;;;;;;;;10289013;28;20064;-62
2024/01/01 13:30:20;;;;;;;54.88;42.30;;;;;;;;;;10288291;28;20075;-62
2024/01/01 13:35:19;;;;;;;47.78;39.20;;;;;;;;;;10289628;28;20111;-62
2024/01/01 13:40:18;;;;;;;46.20;38.90;;;;;;;;;;10288499;28;20087;-63
2024/01/01 13:45:16;;;;;;;62.17;50.45;;;;;;;;;;10289750;28;20076;-63
2024/01/01 13:50:16;;;;;;;67.45;55.50;;;;;;;;;;10288024;28;20072;-62
2024/01/01 13:55:19;;;;;;;69.60;54.95;;;;;;;;;;10286346;28;20103;-62
2024/01/01 14:00:19;;;;;;;68.90;55.20;;;;;;;;;;10288191;28;20083;-62
2024/01/01 14:05:18;;;;;;;56.42;47.28;;;;;;;;;;10286777;28;20079;-62
2024/01/01 14:10:18;;;;;;;105.07;83.05;;;;;;;;;;10288169;28;20080;-61
2024/01/01 14:15:20;;;;;;;96.75;75.18;;;;;;;;;;10286830;28;20076;-60
2024/01/01 14:20:20;;;;;;;90.93;75.07;;;;;;;;;;10287024;28;20078;-60
2024/01/01 14:25:19;;;;;;;77.60;66.43;;;;;;;;;;10286902;28;20076;-61
2024/01/01 14:30:21;;;;;;;42.05;35.33;;;;;;;;;;10284455;28;20082;-61
2024/01/01 14:35:19;;;;;;;56.28;45.95;;;;;;;;;;10288560;28;20076;-60
2024/01/01 14:40:18;;;;;;;51.97;43.05;;;;;;;;;;10286907;28;20498;-60
2024/01/01 14:45:16;;;;;;;60.17;48.80;;;;;;;;;;10288159;28;20432;-60
2024/01/01 14:50:16;;;;;;;47.00;39.85;;;;;;;;;;10286625;28;20103;-62
2024/01/01 14:55:14;;;;;;;34.28;29.40;;;;;;;;;;10285267;28;20095;-62
2024/01/01 15:00:13;;;;;;;35.83;28.67;;;;;;;;;;10283285;28;20084;-61
2024/01/01 15:05:11;;;;;;;30.13;25.90;;;;;;;;;;10284662;28;20068;-61
2024/01/01 15:10:11;;;;;;;29.85;26.13;;;;;;;;;;10281949;28;20056;-60
2024/01/01 15:15:10;;;;;;;28.23;24.98;;;;;;;;;;10281949;28;20076;-61
2024/01/01 15:20:09;;;;;;;32.80;27.70;;;;;;;;;;10282798;28;21412;-62
2024/01/01 15:25:07;;;;;;;29.10;25.88;;;;;;;;;;10274462;28;20068;-61
2024/01/01 15:30:08;;;;;;;29.83;24.77;;;;;;;;;;10281984;28;20073;-61
2024/01/01 15:35:07;;;;;;;29.52;25.65;;;;;;;;;;10283589;28;20100;-61
2024/01/01 15:40:07;;;;;;;25.92;23.17;;;;;;;;;;10282815;28;20082;-60
2024/01/01 15:45:06;;;;;;;32.00;27.35;;;;;;;;;;10282318;28;20076;-62
2024/01/01 15:50:06;;;;;;;23.67;21.30;;;;;;;;;;10283510;28;20507;-62
2024/01/01 15:55:06;;;;;;;24.70;21.77;;;;;;;;;;10282262;28;20084;-63
2024/01/01 16:00:06;;;;;;;27.00;24.00;;;;;;;;;;10285411;28;20506;-59
2024/01/01 16:05:12;;;;;;;65.80;47.17;;;;;;;;;;10282422;28;20076;-61
2024/01/01 16:10:10;;;;;;;23.92;21.30;;;;;;;;;;10274400;28;20069;-61
2024/01/01 16:15:09;;;;;;;25.95;21.63;;;;;;;;;;10283047;28;20077;-61
2024/01/01 16:20:10;;;;;;;22.83;20.08;;;;;;;;;;10280365;28;20072;-62
2024/01/01 16:25:11;;;;;;;26.23;21.80;;;;;;;;;;10279154;28;20075;-61
2024/01/01 16:30:09;;;;;;;33.28;28.70;;;;;;;;;;10282769;28;20080;-61
2024/01/01 16:35:08;;;;;;;32.92;27.90;;;;;;;;;;10284060;28;20084;-62
2024/01/01 16:40:07;;;;;;;26.52;21.73;;;;;;;;;;10291096;28;20080;-60
2024/01/01 16:45:07;;;;;;;21.83;18.67;;;;;;;;;;10290928;28;20520;-61
2024/01/01 16:50:06;;;;;;;22.15;19.40;;;;;;;;;;10287012;28;20069;-60
2024/01/01 16:55:04;;;;;;;21.10;18.73;;;;;;;;;;10289830;28;20065;-61
2024/01/01 17:00:04;;;;;;;22.98;17.67;;;;;;;;;;10288924;28;20087;-62
2024/01/01 17:05:04;;;;;;;22.42;17.40;;;;;;;;;;10289715;28;20083;-61
2024/01/01 17:10:03;;;;;;;20.30;17.15;;;;;;;;;;10289861;28;20076;-61
2024/01/01 17:15:02;;;;;;;18.98;15.60;;;;;;;;;;10290643;28;20076;-61
2024/01/01 17:20:00;;;;;;;16.80;14.93;;;;;;;;;;10286578;28;20080;-61
2024/01/01 17:25:00;;;;;;;16.85;15.05;;;;;;;;;;10287378;28;20083;-61
2024/01/01 17:29:58;;;;;;;18.40;14.02;;;;;;;;;;10288238;28;20068;-62
2024/01/01 17:34:56;;;;;;;17.17;13.55;;;;;;;;;;10288110;28;20095;-63
2024/01/01 17:39:55;;;;;;;15.57;13.43;;;;;;;;;;10289408;28;20076;-62
2024/01/01 17:44:56;;;;;;;17.73;15.77;;;;;;;;;;10284899;28;20068;-61
2024/01/01 17:49:54;;;;;;;16.00;13.50;;;;;;;;;;10286281;28;20072;-62
2024/01/01 17:54:52;;;;;;;15.30;13.57;;;;;;;;;;10288444;28;20084;-60
2024/01/01 17:59:50;;;;;;;14.88;13.02;;;;;;;;;;10286681;28;20541;-61
2024/01/01 18:04:52;;;;;;;17.02;13.88;;;;;;;;;;10277037;28;20135;-62
2024/01/01 18:09:50;;;;;;;17.00;15.32;;;;;;;;;;10282701;28;20412;-61
2024/01/01 18:14:49;;;;;;;52.45;35.55;;;;;;;;;;10283572;28;20422;-61
2024/01/01 18:19:47;;;;;;;16.58;13.75;;;;;;;;;;10286252;28;20531;-61
2024/01/01 18:24:48;;;;;;;16.08;12.60;;;;;;;;;;10287100;28;20497;-60
2024/01/01 18:29:46;;;;;;;22.25;18.17;;;;;;;;;;10283995;28;20090;-61
2024/01/01 18:34:45;;;;;;;25.65;19.20;;;;;;;;;;10283247;28;20069;-61
2024/01/01 18:39:45;;;;;;;29.92;23.92;;;;;;;;;;10286074;28;20072;-61
2024/01/01 18:44:45;;;;;;;24.00;19.55;;;;;;;;;;10281792;28;20130;-61
2024/01/01 18:49:43;;;;;;;28.33;25.33;;;;;;;;;;10287512;28;20084;-62
2024/01/01 18:54:42;;;;;;;30.42;27.17;;;;;;;;;;10284225;28;20140;-61
2024/01/01 18:59:40;;;;;;;38.10;28.02;;;;;;;;;;10280984;28;20080;-62
2024/01/01 19:04:40;;;;;;;30.17;26.98;;;;;;;;;;10281981;28;20526;-62
2024/01/01 19:09:40;;;;;;;32.15;27.52;;;;;;;;;;10283313;28;20064;-62
2024/01/01 19:14:38;;;;;;;38.30;29.83;;;;;;;;;;10281253;28;20069;-62
2024/01/01 19:19:38;;;;;;;38.13;30.10;;;;;;;;;;10280484;28;20083;-62
2024/01/01 19:24:37;;;;;;;32.78;27.58;;;;;;;;;;10285362;28;20068;-62
2024/01/01 19:29:35;;;;;;;34.15;29.58;;;;;;;;;;10283692;28;20069;-63
2024/01/01 19:34:34;;;;;;;31.75;27.17;;;;;;;;;;10285801;28;20519;-62
2024/01/01 19:39:32;;;;;;;86.78;57.38;;;;;;;;;;10280283;28;20068;-62
2024/01/01 19:44:32;;;;;;;92.60;63.83;;;;;;;;;;10274717;28;20069;-62
2024/01/01 19:49:30;;;;;;;42.60;34.25;;;;;;;;;;10279086;28;20163;-62
2024/01/01 19:54:28;;;;;;;37.22;29.98;;;;;;;;;;10280329;28;20083;-62
2024/01/01 19:59:27;;;;;;;33.50;29.80;;;;;;;;;;10277084;28;20084;-62
2024/01/01 20:04:27;;;;;;;34.83;29.05;;;;;;;;;;10273092;28;20084;-61
2024/01/01 20:09:25;;;;;;;30.60;27.30;;;;;;;;;;10278202;28;20071;-62
2024/01/01 20:14:23;;;;;;;31.95;28.33;;;;;;;;;;10289062;28;20068;-62
2024/01/01 20:19:22;;;;;;;39.03;30.48;;;;;;;;;;10288260;28;20083;-62
2024/01/01 20:24:21;;;;;;;39.70;33.05;;;;;;;;;;10290471;28;20079;-62
2024/01/01 20:29:20;;;;;;;40.00;30.67;;;;;;;;;;10289122;28;20513;-62
2024/01/01 20:34:18;;;;;;;38.92;32.65;;;;;;;;;;10285882;28;20079;-62
2024/01/01 20:39:16;;;;;;;41.55;31.90;;;;;;;;;;10289471;28;20494;-62
2024/01/01 20:44:16;;;;;;;41.25;32.67;;;;;;;;;;10285449;28;20463;-63
2024/01/01 20:49:14;;;;;;;42.72;34.85;;;;;;;;;;10291591;28;20091;-62
2024/01/01 20:54:13;;;;;;;39.42;31.27;;;;;;;;;;10284926;28;20057;-62
2024/01/01 20:59:12;;;;;;;36.85;31.23;;;;;;;;;;10285992;28;20071;-61
2024/01/01 21:04:12;;;;;;;38.25;32.58;;;;;;;;;;10284012;28;20076;-62
2024/01/01 21:09:11;;;;;;;40.88;33.17;;;;;;;;;;10285273;28;20356;-61
2024/01/01 21:14:10;;;;;;;40.88;34.38;;;;;;;;;;10285877;28;20068;-61
2024/01/01 21:19:10;;;;;;;44.08;35.63;;;;;;;;;;10281872;28;20083;-62
2024/01/01 21:24:09;;;;;;;39.67;33.22;;;;;;;;;;10284648;28;20072;-62
2024/01/01 21:29:07;;;;;;;41.38;32.35;;;;;;;;;;10285193;28;20503;-60
2024/01/01 21:34:06;;;;;;;41.65;35.30;;;;;;;;;;10289088;28;20072;-61
2024/01/01 21:39:04;;;;;;;40.45;33.78;;;;;;;;;;10287751;28;20092;-61
2024/01/01 21:44:04;;;;;;;39.50;34.58;;;;;;;;;;10286256;28;20072;-60
2024/01/01 21:49:05;;;;;;;42.95;36.58;;;;;;;;;;10288303;28;20451;-61
2024/01/01 21:54:05;;;;;;;42.28;37.33;;;;;;;;;;10287180;28;20578;-62
2024/01/01 21:59:05;;;;;;;45.83;38.83;;;;;;;;;;10283282;28;20080;-62
2024/01/01 22:04:03;;;;;;;49.03;37.70;;;;;;;;;;10286075;28;20076;-62
2024/01/01 22:09:01;;;;;;;42.40;35.90;;;;;;;;;;10286634;28;20497;-61
2024/01/01 22:14:00;;;;;;;45.30;37.42;;;;;;;;;;10285655;28;20083;-61
2024/01/01 22:18:59;;;;;;;46.58;39.00;;;;;;;;;;10285595;28;20106;-62
2024/01/01 22:23:58;;;;;;;50.15;39.05;;;;;;;;;;10286719;28;20466;-62
2024/01/01 22:28:56;;;;;;;47.88;39.33;;;;;;;;;;10287464;28;20111;-63
2024/01/01 22:33:54;;;;;;;48.92;38.15;;;;;;;;;;10285193;28;20096;-62
2024/01/01 22:38:54;;;;;;;47.13;38.42;;;;;;;;;;10285742;28;20080;-61
2024/01/01 22:43:52;;;;;;;46.85;37.15;;;;;;;;;;10283963;28;20075;-61
2024/01/01 22:48:50;;;;;;;42.63;36.50;;;;;;;;;;10279447;28;20087;-61
2024/01/01 22:53:49;;;;;;;44.08;35.95;;;;;;;;;;10284441;28;20079;-61
2024/01/01 22:58:48;;;;;;;42.92;35.45;;;;;;;;;;10282212;28;20481;-61
2024/01/01 23:03:47;;;;;;;40.30;33.80;;;;;;;;;;10280759;28;20069;-61
2024/01/01 23:08:45;;;;;;;42.03;34.65;;;;;;;;;;10281041;28;20080;-61
2024/01/01 23:13:44;;;;;;;40.30;34.25;;;;;;;;;;10283169;28;20072;-61
2024/01/01 23:18:43;;;;;;;37.97;32.90;;;;;;;;;;10297688;28;20080;-62
2024/01/01 23:23:42;;;;;;;35.78;29.23;;;;;;;;;;10285488;28;20095;-62
2024/01/01 23:28:41;;;;;;;33.58;27.35;;;;;;;;;;10283617;28;20079;-61
2024/01/01 23:33:39;;;;;;;30.42;25.40;;;;;;;;;;10286714;28;20153;-62
2024/01/01 23:38:39;;;;;;;28.70;24.70;;;;;;;;;;10286030;28;20083;-62
2024/01/01 23:43:37;;;;;;;27.55;24.10;;;;;;;;;;10284341;28;20090;-63
2024/01/01 23:48:35;;;;;;;28.80;24.15;;;;;;;;;;10297359;28;20107;-62
2024/01/01 23:53:33;;;;;;;27.92;23.02;;;;;;;;;;10299266;28;20525;-61
2024/01/01 23:58:34;;;;;;;29.42;23.58;;;;;;;;;;10291221;28;20079;-62
